Time;durP1;ratioP1;P1;durP2;ratioP2;P2;SDS_P1;SDS_P2;PMS_P1;PMS_P2;Temp;Humidity;BMP_temperature;BMP_pressure;BME280_temperature;BME280_humidity;BME280_pressure;Samples;Min_cycle;Max_cycle;Signal;HPM_P1;HPM_P2
2020/12/08 00:00:33;;;;;;;;;;;23.20;68.90;;;;;;5033086;28;20008;-70
2020/12/08 00:02:59;;;;;;;;;;;23.20;69.10;;;;;;5038239;28;19993;-67
2020/12/08 00:05:25;;;;;;;;;;;23.20;69.20;;;;;;5033832;28;19953;-67
2020/12/08 00:07:52;;;;;;;;;;;23.20;69.30;;;;;;5034212;28;20361;-67
2020/12/08 00:10:21;;;;;;;;;;;23.20;69.40;;;;;;5033651;28;20013;-68
2020/12/08 00:12:47;;;;;;;;;;;23.20;69.50;;;;;;5033847;28;20427;-68
2020/12/08 00:15:14;;;;;;;;;;;23.20;69.50;;;;;;5037890;28;19924;-68
2020/12/08 00:17:40;;;;;;;;;;;23.20;69.60;;;;;;5033522;28;19921;-67
2020/12/08 00:20:07;;;;;;;;;;;23.20;69.70;;;;;;5031992;28;19913;-68
2020/12/08 00:22:33;;;;;;;;;;;23.20;69.80;;;;;;5034361;28;19923;-68
2020/12/08 00:24:59;;;;;;;;;;;23.20;69.90;;;;;;5034351;28;19913;-67
2020/12/08 00:27:25;;;;;;;;;;;23.20;70.00;;;;;;5033911;28;19959;-68
2020/12/08 00:29:51;;;;;;;;;;;23.20;70.00;;;;;;5031726;28;19928;-67
2020/12/08 00:32:18;;;;;;;;;;;23.20;70.10;;;;;;5033749;28;20334;-68
2020/12/08 00:34:44;;;;;;;;;;;23.20;70.10;;;;;;5032324;28;19920;-67
2020/12/08 00:37:10;;;;;;;;;;;23.20;70.10;;;;;;5033944;28;19966;-67
2020/12/08 00:39:36;;;;;;;;;;;23.20;70.20;;;;;;5035094;28;20360;-68
2020/12/08 00:42:02;;;;;;;;;;;23.20;70.30;;;;;;5035200;28;19917;-71
2020/12/08 00:44:28;;;;;;;;;;;23.20;70.30;;;;;;5036685;28;20354;-69
2020/12/08 00:46:54;;;;;;;;;;;23.20;70.40;;;;;;5035799;28;19920;-72
2020/12/08 00:49:20;;;;;;;;;;;23.20;70.50;;;;;;5034149;28;20055;-71
2020/12/08 00:51:46;;;;;;;;;;;23.20;70.50;;;;;;5030267;28;19913;-70
2020/12/08 00:54:12;;;;;;;;;;;23.20;70.60;;;;;;5063745;28;20376;-68
2020/12/08 00:56:39;;;;;;;;;;;23.20;70.70;;;;;;5031427;28;19952;-69
2020/12/08 00:59:06;;;;;;;;;;;23.20;70.70;;;;;;5029468;28;19920;-69
2020/12/08 01:01:32;;;;;;;;;;;23.20;70.80;;;;;;5036347;28;19909;-72
2020/12/08 01:03:58;;;;;;;;;;;23.10;70.90;;;;;;5034452;28;19920;-68
2020/12/08 01:06:25;;;;;;;;;;;23.20;71.20;;;;;;5029800;28;19948;-72
2020/12/08 01:08:51;;;;;;;;;;;23.10;71.30;;;;;;5031137;28;19968;-69
2020/12/08 01:11:17;;;;;;;;;;;23.10;71.60;;;;;;5033549;28;20356;-74
2020/12/08 01:13:43;;;;;;;;;;;23.10;71.70;;;;;;5033349;28;19913;-75
2020/12/08 01:16:09;;;;;;;;;;;23.10;71.90;;;;;;5032723;28;19913;-74
2020/12/08 01:18:35;;;;;;;;;;;23.10;72.20;;;;;;5031645;28;19913;-79
2020/12/08 01:21:01;;;;;;;;;;;23.10;72.40;;;;;;5033416;28;19983;-79
2020/12/08 01:23:27;;;;;;;;;;;23.10;72.50;;;;;;5033561;28;20399;-79
2020/12/08 01:25:53;;;;;;;;;;;23.10;72.60;;;;;;5031585;28;20312;-70
2020/12/08 01:28:19;;;;;;;;;;;23.10;72.90;;;;;;5033615;28;19913;-70
2020/12/08 01:30:47;;;;;;;;;;;23.10;73.00;;;;;;5031036;28;19909;-76
2020/12/08 01:33:13;;;;;;;;;;;23.10;73.10;;;;;;5030700;28;20356;-77
2020/12/08 01:35:39;;;;;;;;;;;23.10;73.30;;;;;;5033898;28;20368;-78
2020/12/08 01:38:05;;;;;;;;;;;23.00;73.30;;;;;;5030426;28;20067;-78
2020/12/08 01:40:31;;;;;;;;;;;23.00;73.50;;;;;;5031602;28;19909;-75
2020/12/08 01:42:58;;;;;;;;;;;23.00;73.60;;;;;;5032602;28;19925;-78
2020/12/08 01:45:24;;;;;;;;;;;23.00;73.80;;;;;;5034728;28;20396;-80
2020/12/08 01:47:51;;;;;;;;;;;23.00;73.80;;;;;;5035700;28;20008;-70
2020/12/08 01:50:18;;;;;;;;;;;23.00;74.00;;;;;;5034921;28;19924;-73
2020/12/08 01:52:44;;;;;;;;;;;23.00;74.10;;;;;;5035062;28;19966;-74
2020/12/08 01:55:12;;;;;;;;;;;23.00;74.20;;;;;;5033307;28;19916;-82
2020/12/08 01:57:38;;;;;;;;;;;23.00;74.30;;;;;;5035807;28;20303;-79
2020/12/08 02:00:05;;;;;;;;;;;23.00;74.30;;;;;;5029960;28;20010;-72
2020/12/08 02:02:51;;;;;;;;;;;23.00;74.40;;;;;;5034524;28;20344;-68
2020/12/08 02:05:37;;;;;;;;;;;23.00;74.50;;;;;;5034391;28;19919;-79
2020/12/08 02:08:23;;;;;;;;;;;22.90;74.50;;;;;;5033840;28;19920;-78
2020/12/08 02:11:09;;;;;;;;;;;22.90;74.60;;;;;;5035106;28;19925;-89
2020/12/08 02:13:54;;;;;;;;;;;22.90;74.70;;;;;;5032832;28;19914;-82
2020/12/08 02:16:40;;;;;;;;;;;22.90;74.70;;;;;;5036720;28;19913;-74
2020/12/08 02:19:30;;;;;;;;;;;22.90;74.80;;;;;;5035111;28;19953;-77
2020/12/08 02:22:16;;;;;;;;;;;22.90;74.90;;;;;;5032664;28;19914;-78
2020/12/08 02:25:04;;;;;;;;;;;22.90;75.00;;;;;;5034012;28;19913;-85
2020/12/08 02:27:49;;;;;;;;;;;22.90;75.10;;;;;;5032294;28;19936;-79
2020/12/08 02:30:35;;;;;;;;;;;22.90;75.10;;;;;;5036370;28;20380;-79
2020/12/08 02:33:21;;;;;;;;;;;22.90;75.20;;;;;;5032829;28;20324;-88
2020/12/08 02:36:07;;;;;;;;;;;22.90;75.30;;;;;;5035045;28;19921;-85
2020/12/08 02:38:53;;;;;;;;;;;22.90;75.40;;;;;;5034990;28;19960;-80
2020/12/08 02:41:39;;;;;;;;;;;22.90;75.60;;;;;;5037068;28;20304;-84
2020/12/08 02:44:25;;;;;;;;;;;22.90;75.50;;;;;;5034732;28;19968;-83
2020/12/08 02:47:10;;;;;;;;;;;22.90;75.60;;;;;;5038732;28;19920;-88
2020/12/08 02:49:56;;;;;;;;;;;22.90;75.70;;;;;;5040909;28;19936;-68
2020/12/08 02:52:42;;;;;;;;;;;22.90;75.80;;;;;;5037372;28;20448;-70
2020/12/08 02:55:28;;;;;;;;;;;22.80;75.70;;;;;;5040797;28;19956;-88
2020/12/08 02:58:14;;;;;;;;;;;22.80;75.80;;;;;;5040075;28;19920;-87
2020/12/08 03:01:00;;;;;;;;;;;22.80;75.90;;;;;;5042573;28;19916;-80
2020/12/08 03:03:46;;;;;;;;;;;22.90;76.00;;;;;;5044231;28;19917;-89
2020/12/08 03:06:32;;;;;;;;;;;22.80;76.10;;;;;;5046406;28;19913;-83
2020/12/08 03:09:18;;;;;;;;;;;22.80;76.10;;;;;;5040356;28;19928;-71
2020/12/08 03:12:03;;;;;;;;;;;22.80;76.20;;;;;;5045225;28;20003;-69
2020/12/08 03:14:49;;;;;;;;;;;22.80;76.20;;;;;;5036794;28;19913;-79
2020/12/08 03:17:35;;;;;;;;;;;22.80;76.10;;;;;;5035921;28;20343;-74
2020/12/08 03:20:21;;;;;;;;;;;22.80;75.70;;;;;;5036694;28;19913;-81
2020/12/08 03:23:07;;;;;;;;;;;22.70;75.30;;;;;;5037530;28;20007;-77
2020/12/08 03:25:53;;;;;;;;;;;22.70;74.80;;;;;;5038979;28;19918;-81
2020/12/08 03:28:39;;;;;;;;;;;22.60;74.30;;;;;;5039818;28;19913;-76
2020/12/08 03:31:25;;;;;;;;;;;22.60;73.80;;;;;;5034722;28;19921;-72
2020/12/08 03:34:10;;;;;;;;;;;22.60;73.30;;;;;;5035191;28;19970;-69
2020/12/08 03:36:56;;;;;;;;;;;22.60;72.80;;;;;;5042475;28;20373;-68
2020/12/08 03:39:42;;;;;;;;;;;22.50;72.30;;;;;;5033684;28;19913;-71
2020/12/08 03:42:28;;;;;;;;;;;22.50;71.80;;;;;;5034637;28;20009;-67
2020/12/08 03:45:14;;;;;;;;;;;22.50;71.40;;;;;;5033813;28;20384;-68
2020/12/08 03:48:00;;;;;;;;;;;22.40;71.00;;;;;;5035681;28;19917;-68
2020/12/08 03:50:46;;;;;;;;;;;22.40;70.60;;;;;;5034168;28;19921;-68
2020/12/08 03:53:31;;;;;;;;;;;22.30;70.40;;;;;;5035879;28;20435;-71
2020/12/08 03:56:17;;;;;;;;;;;22.30;70.20;;;;;;5033432;28;19921;-86
2020/12/08 03:59:03;;;;;;;;;;;22.30;70.10;;;;;;5036025;28;19917;-79
2020/12/08 04:01:49;;;;;;;;;;;22.30;70.00;;;;;;5031428;28;19960;-82
2020/12/08 04:04:35;;;;;;;;;;;22.30;69.90;;;;;;5034576;28;19913;-70
2020/12/08 04:07:21;;;;;;;;;;;22.30;69.80;;;;;;5034714;28;20319;-76
2020/12/08 04:09:47;;;;;;;;;;;22.20;69.70;;;;;;5029957;28;19921;-68
2020/12/08 04:12:13;;;;;;;;;;;22.20;69.50;;;;;;5033343;28;19955;-73
2020/12/08 04:14:39;;;;;;;;;;;22.20;69.30;;;;;;5032302;28;19960;-68
2020/12/08 04:17:05;;;;;;;;;;;22.20;69.50;;;;;;5035403;28;20350;-71
2020/12/08 04:19:31;;;;;;;;;;;22.10;69.70;;;;;;5033706;28;19983;-73
2020/12/08 04:22:00;;;;;;;;;;;22.10;69.70;;;;;;5034531;28;19909;-80
2020/12/08 04:24:27;;;;;;;;;;;22.10;69.60;;;;;;5032674;28;19921;-78
2020/12/08 04:26:53;;;;;;;;;;;22.10;69.40;;;;;;5029290;28;20268;-72
2020/12/08 04:29:19;;;;;;;;;;;22.10;69.30;;;;;;5033585;28;20388;-70
2020/12/08 04:31:45;;;;;;;;;;;22.10;69.20;;;;;;5033281;28;19917;-78
2020/12/08 04:34:11;;;;;;;;;;;22.00;69.20;;;;;;5035584;28;20279;-78
2020/12/08 04:36:37;;;;;;;;;;;22.10;69.20;;;;;;5031216;28;19974;-72
2020/12/08 04:39:23;;;;;;;;;;;22.10;69.30;;;;;;5029715;28;19920;-77
2020/12/08 04:42:09;;;;;;;;;;;22.10;69.30;;;;;;5031249;28;19913;-76
2020/12/08 04:44:55;;;;;;;;;;;22.00;69.20;;;;;;5029169;28;19925;-71
2020/12/08 04:47:41;;;;;;;;;;;22.00;69.10;;;;;;5028017;28;19971;-71
2020/12/08 04:50:28;;;;;;;;;;;22.00;69.10;;;;;;5029949;28;20287;-70
2020/12/08 04:53:14;;;;;;;;;;;22.00;69.10;;;;;;5028530;28;19916;-69
2020/12/08 04:55:40;;;;;;;;;;;22.00;69.00;;;;;;5032126;28;19948;-73
2020/12/08 04:58:08;;;;;;;;;;;22.00;68.90;;;;;;5029662;28;20034;-73
2020/12/08 05:00:45;;;;;;;;;;;22.00;68.90;;;;;;5028743;28;20395;-79
2020/12/08 05:03:11;;;;;;;;;;;22.00;68.90;;;;;;5030908;28;19922;-76
2020/12/08 05:05:44;;;;;;;;;;;22.00;69.00;;;;;;5028273;28;19917;-75
2020/12/08 05:08:12;;;;;;;;;;;22.00;69.10;;;;;;5030433;28;19920;-79
2020/12/08 05:10:39;;;;;;;;;;;22.00;69.20;;;;;;5027745;28;19932;-70
2020/12/08 05:13:15;;;;;;;;;;;22.00;69.30;;;;;;5029884;28;19971;-69
2020/12/08 05:15:41;;;;;;;;;;;22.00;69.40;;;;;;5029981;28;20330;-68
2020/12/08 05:18:08;;;;;;;;;;;22.10;69.70;;;;;;5028122;28;20404;-68
2020/12/08 05:20:54;;;;;;;;;;;22.00;69.70;;;;;;5030310;28;19973;-68
2020/12/08 05:23:41;;;;;;;;;;;22.10;70.00;;;;;;5031330;28;19925;-76
2020/12/08 05:29:30;;;;;;;;;;;22.10;70.10;;;;;;5030673;28;19928;-71
2020/12/08 05:32:16;;;;;;;;;;;22.10;70.80;;;;;;5033024;28;19921;-69
2020/12/08 05:35:02;;;;;;;;;;;22.10;70.20;;;;;;5030602;28;19913;-69
2020/12/08 05:37:48;;;;;;;;;;;22.10;70.20;;;;;;5029364;28;19979;-69
2020/12/08 05:40:34;;;;;;;;;;;22.10;70.20;;;;;;5032357;28;20372;-68
2020/12/08 05:43:20;;;;;;;;;;;22.10;70.20;;;;;;5031315;28;19928;-68
2020/12/08 05:46:06;;;;;;;;;;;22.10;70.20;;;;;;5034680;28;19919;-69
2020/12/08 05:48:52;;;;;;;;;;;22.10;70.20;;;;;;5031582;28;19920;-69
2020/12/08 05:51:39;;;;;;;;;;;22.20;70.80;;;;;;5031603;28;19916;-69
2020/12/08 05:54:24;;;;;;;;;;;22.20;70.10;;;;;;5029978;28;19917;-69
2020/12/08 05:57:11;;;;;;;;;;;22.20;70.00;;;;;;5033285;28;19916;-68
2020/12/08 05:59:57;;;;;;;;;;;22.20;69.90;;;;;;5029139;28;19920;-69
2020/12/08 06:02:46;;;;;;;;;;;22.20;69.90;;;;;;5029297;28;20347;-67
2020/12/08 06:05:32;;;;;;;;;;;22.20;69.90;;;;;;5028255;28;20379;-73
2020/12/08 06:08:14;;;;;;;;;;;22.30;69.90;;;;;;5030055;28;19979;-73
2020/12/08 06:11:03;;;;;;;;;;;22.30;69.90;;;;;;5029094;28;19932;-72
2020/12/08 06:13:30;;;;;;;;;;;22.30;69.90;;;;;;5031967;28;19920;-70
2020/12/08 06:15:58;;;;;;;;;;;22.40;70.00;;;;;;5030348;28;19917;-68
2020/12/08 06:18:31;;;;;;;;;;;22.40;70.00;;;;;;5029997;28;19917;-68
2020/12/08 06:20:57;;;;;;;;;;;22.40;69.90;;;;;;5039707;28;19913;-69
2020/12/08 06:23:24;;;;;;;;;;;22.50;70.00;;;;;;5035850;28;19909;-70
2020/12/08 06:26:03;;;;;;;;;;;22.50;69.90;;;;;;5038623;28;19948;-70
2020/12/08 06:28:29;;;;;;;;;;;22.50;69.70;;;;;;5036143;28;20360;-68
2020/12/08 06:31:03;;;;;;;;;;;22.50;69.60;;;;;;5040993;28;20213;-72
2020/12/08 06:33:30;;;;;;;;;;;22.50;69.40;;;;;;5038493;28;20015;-70
2020/12/08 06:36:00;;;;;;;;;;;22.50;69.30;;;;;;5037734;28;19951;-68
2020/12/08 06:38:26;;;;;;;;;;;22.50;69.90;;;;;;5033844;28;20280;-71
2020/12/08 06:40:53;;;;;;;;;;;22.50;69.10;;;;;;5036180;28;19956;-74
2020/12/08 06:43:22;;;;;;;;;;;22.50;69.00;;;;;;5037794;28;20482;-69
2020/12/08 06:45:49;;;;;;;;;;;22.50;69.00;;;;;;5037973;28;19917;-69
2020/12/08 06:48:21;;;;;;;;;;;22.50;68.90;;;;;;5041011;28;20298;-68
2020/12/08 06:50:48;;;;;;;;;;;22.50;68.80;;;;;;5039828;28;19916;-73
2020/12/08 06:53:14;;;;;;;;;;;22.50;68.70;;;;;;5037317;28;19913;-72
2020/12/08 06:55:45;;;;;;;;;;;22.50;68.60;;;;;;5038745;28;19923;-75
2020/12/08 06:58:11;;;;;;;;;;;22.50;68.50;;;;;;5040342;28;20300;-74
2020/12/08 07:00:37;;;;;;;;;;;22.50;68.30;;;;;;5038506;28;19968;-75
2020/12/08 07:03:04;;;;;;;;;;;22.50;68.20;;;;;;5037931;28;19917;-76
2020/12/08 07:05:32;;;;;;;;;;;22.50;68.10;;;;;;5040963;28;19918;-76
2020/12/08 07:07:59;;;;;;;;;;;22.50;68.00;;;;;;5036452;28;20005;-75
2020/12/08 07:10:25;;;;;;;;;;;22.50;67.90;;;;;;5042092;28;19967;-75
2020/12/08 07:12:54;;;;;;;;;;;22.40;67.70;;;;;;5040614;28;19919;-74
2020/12/08 07:15:20;;;;;;;;;;;22.50;67.70;;;;;;5038941;28;19998;-71
2020/12/08 07:18:01;;;;;;;;;;;22.40;67.70;;;;;;5035921;28;20430;-74
2020/12/08 07:20:27;;;;;;;;;;;22.40;67.60;;;;;;5035546;28;20364;-74
2020/12/08 07:22:54;;;;;;;;;;;22.40;67.60;;;;;;5039504;28;19919;-71
2020/12/08 07:25:21;;;;;;;;;;;22.40;67.70;;;;;;5035535;28;20501;-73
2020/12/08 07:27:48;;;;;;;;;;;22.40;67.60;;;;;;5043203;28;19913;-69
2020/12/08 07:30:16;;;;;;;;;;;22.40;67.70;;;;;;5036371;28;20295;-71
2020/12/08 07:32:42;;;;;;;;;;;22.40;67.70;;;;;;5037062;28;20303;-73
2020/12/08 07:35:19;;;;;;;;;;;22.40;67.70;;;;;;5037399;28;19917;-69
2020/12/08 07:37:45;;;;;;;;;;;22.40;67.70;;;;;;5041098;28;19923;-73
2020/12/08 07:40:12;;;;;;;;;;;22.40;67.70;;;;;;5043708;28;19963;-73
2020/12/08 07:42:38;;;;;;;;;;;22.40;67.80;;;;;;5037309;28;19959;-74
2020/12/08 07:45:08;;;;;;;;;;;22.40;67.70;;;;;;5036382;28;19925;-73
2020/12/08 07:47:35;;;;;;;;;;;22.40;67.70;;;;;;5037359;28;19967;-74
2020/12/08 07:50:02;;;;;;;;;;;22.40;67.70;;;;;;5035400;28;20359;-74
2020/12/08 07:52:28;;;;;;;;;;;22.40;67.70;;;;;;5035289;28;20826;-71
2020/12/08 07:54:54;;;;;;;;;;;22.40;67.60;;;;;;5034233;28;19959;-73
2020/12/08 07:57:20;;;;;;;;;;;22.30;67.50;;;;;;5035306;28;20449;-75
2020/12/08 07:59:46;;;;;;;;;;;22.30;67.50;;;;;;5037942;28;19913;-75
2020/12/08 08:02:12;;;;;;;;;;;22.40;67.50;;;;;;5035772;28;20635;-75
2020/12/08 08:04:39;;;;;;;;;;;22.40;67.50;;;;;;5034633;28;19975;-74
2020/12/08 08:07:05;;;;;;;;;;;22.40;67.40;;;;;;5031453;28;19952;-77
2020/12/08 08:09:32;;;;;;;;;;;22.40;67.50;;;;;;5035749;28;19995;-77
2020/12/08 08:11:58;;;;;;;;;;;22.40;67.40;;;;;;5034326;28;19935;-76
2020/12/08 08:14:24;;;;;;;;;;;22.40;67.30;;;;;;5034818;28;20380;-77
2020/12/08 08:16:50;;;;;;;;;;;22.40;67.30;;;;;;5039799;28;19917;-76
2020/12/08 08:19:16;;;;;;;;;;;22.50;67.20;;;;;;5036541;28;19996;-76
2020/12/08 08:21:44;;;;;;;;;;;22.50;67.10;;;;;;5069331;28;19920;-76
2020/12/08 08:24:10;;;;;;;;;;;22.50;67.00;;;;;;5038464;28;19959;-77
2020/12/08 08:26:56;;;;;;;;;;;22.50;67.00;;;;;;5035222;28;19920;-81
2020/12/08 08:29:42;;;;;;;;;;;22.60;67.60;;;;;;5035776;28;20441;-80
2020/12/08 08:32:28;;;;;;;;;;;22.60;66.90;;;;;;5034389;28;19917;-79
2020/12/08 08:35:13;;;;;;;;;;;22.60;66.80;;;;;;5036812;28;19913;-79
2020/12/08 08:37:59;;;;;;;;;;;22.60;66.80;;;;;;5034225;28;19970;-76
2020/12/08 08:40:45;;;;;;;;;;;22.60;66.80;;;;;;5034905;28;20318;-78
2020/12/08 08:43:31;;;;;;;;;;;22.70;66.70;;;;;;5032993;28;20370;-80
2020/12/08 08:46:17;;;;;;;;;;;22.70;66.70;;;;;;5033779;28;19913;-80
2020/12/08 08:49:03;;;;;;;;;;;22.70;66.60;;;;;;5031447;28;19920;-79
2020/12/08 08:51:49;;;;;;;;;;;22.70;66.60;;;;;;5030973;28;20348;-78
2020/12/08 08:54:51;;;;;;;;;;;22.70;66.50;;;;;;5033584;28;20303;-77
2020/12/08 08:57:37;;;;;;;;;;;22.70;66.30;;;;;;5031820;28;20008;-75
2020/12/08 09:00:23;;;;;;;;;;;22.80;66.30;;;;;;5030374;28;19915;-78
2020/12/08 09:03:09;;;;;;;;;;;22.80;66.20;;;;;;5032995;28;19913;-72
2020/12/08 09:05:55;;;;;;;;;;;22.80;66.10;;;;;;5032596;28;20376;-78
2020/12/08 09:08:41;;;;;;;;;;;22.90;66.00;;;;;;5031684;28;19916;-70
2020/12/08 09:11:26;;;;;;;;;;;22.90;65.90;;;;;;5033137;28;19921;-79
2020/12/08 09:14:12;;;;;;;;;;;22.90;65.80;;;;;;5035869;28;19920;-78
2020/12/08 09:16:56;;;;;;;;;;;23.00;65.50;;;;;;5030859;28;19913;-74
2020/12/08 09:19:22;;;;;;;;;;;23.10;65.30;;;;;;5030911;28;20295;-76
2020/12/08 09:21:54;;;;;;;;;;;23.20;65.10;;;;;;5031323;28;19913;-78
2020/12/08 09:24:21;;;;;;;;;;;23.30;64.90;;;;;;5033483;28;19920;-74
2020/12/08 09:26:47;;;;;;;;;;;23.40;64.80;;;;;;5032521;28;19912;-76
2020/12/08 09:29:13;;;;;;;;;;;23.40;64.60;;;;;;5033142;28;19976;-76
2020/12/08 09:31:41;;;;;;;;;;;23.50;64.50;;;;;;5031828;28;19944;-77
2020/12/08 09:34:07;;;;;;;;;;;23.50;64.40;;;;;;5029217;28;19913;-75
2020/12/08 09:36:34;;;;;;;;;;;23.60;64.30;;;;;;5032462;28;19916;-77
2020/12/08 09:39:00;;;;;;;;;;;23.70;64.10;;;;;;5031619;28;19924;-77
2020/12/08 09:41:26;;;;;;;;;;;23.70;64.00;;;;;;5031234;28;19916;-74
2020/12/08 09:43:53;;;;;;;;;;;23.80;63.90;;;;;;5034372;28;20376;-77
2020/12/08 09:46:19;;;;;;;;;;;23.90;63.70;;;;;;5032388;28;19913;-77
2020/12/08 09:48:45;;;;;;;;;;;24.00;63.60;;;;;;5035417;28;19967;-76
2020/12/08 09:51:11;;;;;;;;;;;24.10;63.40;;;;;;5034281;28;19959;-72
2020/12/08 09:53:38;;;;;;;;;;;24.10;63.10;;;;;;5029549;28;19913;-76
2020/12/08 09:56:04;;;;;;;;;;;24.10;62.80;;;;;;5030847;28;19912;-73
2020/12/08 09:58:30;;;;;;;;;;;24.20;62.60;;;;;;5029804;28;19955;-76
2020/12/08 10:00:56;;;;;;;;;;;24.30;62.40;;;;;;5033519;28;19936;-70
2020/12/08 10:03:22;;;;;;;;;;;24.30;62.70;;;;;;5033880;28;19943;-77
2020/12/08 10:05:48;;;;;;;;;;;24.40;61.80;;;;;;5030049;28;19913;-74
2020/12/08 10:08:15;;;;;;;;;;;24.40;61.40;;;;;;5030235;28;19986;-78
2020/12/08 10:10:41;;;;;;;;;;;24.50;61.10;;;;;;5030700;28;19932;-76
2020/12/08 10:13:07;;;;;;;;;;;24.60;61.00;;;;;;5035327;28;20356;-76
2020/12/08 10:15:33;;;;;;;;;;;24.60;60.70;;;;;;5033611;28;19918;-74
2020/12/08 10:17:59;;;;;;;;;;;24.60;60.50;;;;;;5029850;28;20280;-77
2020/12/08 10:20:26;;;;;;;;;;;24.70;60.40;;;;;;5030957;28;19913;-70
2020/12/08 10:22:52;;;;;;;;;;;24.70;60.10;;;;;;5030991;28;20380;-74
2020/12/08 10:25:18;;;;;;;;;;;24.70;59.90;;;;;;5035249;28;19916;-71
2020/12/08 10:27:44;;;;;;;;;;;24.80;59.80;;;;;;5033659;28;19920;-72
2020/12/08 10:30:10;;;;;;;;;;;24.80;59.60;;;;;;5035334;28;19917;-69
2020/12/08 10:32:36;;;;;;;;;;;24.80;59.40;;;;;;5035197;28;20008;-69
2020/12/08 10:35:02;;;;;;;;;;;24.90;59.20;;;;;;5027925;28;20402;-66
2020/12/08 10:37:28;;;;;;;;;;;25.00;59.10;;;;;;5031061;28;19928;-69
2020/12/08 10:39:54;;;;;;;;;;;25.00;59.00;;;;;;5034230;28;19936;-77
2020/12/08 10:42:20;;;;;;;;;;;25.10;58.80;;;;;;5033018;28;20018;-76
2020/12/08 10:44:47;;;;;;;;;;;25.10;58.70;;;;;;5035059;28;19944;-77
2020/12/08 10:47:13;;;;;;;;;;;25.20;58.60;;;;;;5032725;28;19924;-71
2020/12/08 10:49:39;;;;;;;;;;;25.20;58.40;;;;;;5063321;28;20047;-77
2020/12/08 10:52:05;;;;;;;;;;;25.30;58.30;;;;;;5029611;28;19943;-74
2020/12/08 10:54:31;;;;;;;;;;;25.30;58.20;;;;;;5033063;28;19917;-72
2020/12/08 10:56:57;;;;;;;;;;;25.30;57.90;;;;;;5029365;28;19913;-73
2020/12/08 10:59:23;;;;;;;;;;;25.40;57.80;;;;;;5032850;28;19909;-75
2020/12/08 11:01:49;;;;;;;;;;;25.40;57.70;;;;;;5033135;28;19913;-76
2020/12/08 11:04:15;;;;;;;;;;;25.40;57.30;;;;;;5032155;28;20031;-76
2020/12/08 11:06:45;;;;;;;;;;;25.40;57.20;;;;;;5034393;28;19923;-71
2020/12/08 11:09:11;;;;;;;;;;;25.50;57.10;;;;;;5028614;28;20040;-75
2020/12/08 11:11:37;;;;;;;;;;;25.50;57.10;;;;;;5037116;28;19917;-78
2020/12/08 11:14:03;;;;;;;;;;;25.50;56.90;;;;;;5036654;28;19913;-77
2020/12/08 11:16:29;;;;;;;;;;;25.60;56.80;;;;;;5037293;28;20210;-78
2020/12/08 11:18:56;;;;;;;;;;;25.60;56.50;;;;;;5036078;28;19963;-78
2020/12/08 11:21:24;;;;;;;;;;;25.60;56.20;;;;;;5037492;28;19952;-77
2020/12/08 11:23:50;;;;;;;;;;;25.60;56.20;;;;;;5036803;28;19923;-76
2020/12/08 11:26:16;;;;;;;;;;;25.60;56.20;;;;;;5033970;28;20319;-77
2020/12/08 11:28:42;;;;;;;;;;;25.60;55.90;;;;;;5038158;28;20274;-80
2020/12/08 11:31:08;;;;;;;;;;;25.60;55.50;;;;;;5037974;28;19919;-80
2020/12/08 11:33:34;;;;;;;;;;;25.70;55.70;;;;;;5036070;28;20000;-83
2020/12/08 11:36:00;;;;;;;;;;;25.70;55.40;;;;;;5033730;28;20693;-81
2020/12/08 11:38:27;;;;;;;;;;;25.80;55.40;;;;;;5034716;28;19949;-83
2020/12/08 11:40:53;;;;;;;;;;;25.80;55.40;;;;;;5039574;28;19912;-80
2020/12/08 11:43:19;;;;;;;;;;;25.80;55.20;;;;;;5032797;28;19921;-75
2020/12/08 11:45:46;;;;;;;;;;;25.80;55.10;;;;;;5037066;28;19913;-77
2020/12/08 11:48:13;;;;;;;;;;;25.80;54.80;;;;;;5033544;28;19923;-80
2020/12/08 11:50:39;;;;;;;;;;;25.80;54.80;;;;;;5033724;28;20442;-75
2020/12/08 11:53:05;;;;;;;;;;;25.90;54.90;;;;;;5031095;28;19917;-72
2020/12/08 11:55:31;;;;;;;;;;;25.80;54.80;;;;;;5035587;28;20000;-80
2020/12/08 11:57:57;;;;;;;;;;;25.90;54.90;;;;;;5032654;28;19919;-78
2020/12/08 12:00:23;;;;;;;;;;;25.90;54.70;;;;;;5031906;28;19913;-73
2020/12/08 12:02:50;;;;;;;;;;;25.90;54.50;;;;;;5034438;28;20345;-71
2020/12/08 12:05:16;;;;;;;;;;;26.00;54.40;;;;;;5032869;28;19920;-68
2020/12/08 12:07:42;;;;;;;;;;;26.00;54.40;;;;;;5034191;28;19917;-68
2020/12/08 12:10:09;;;;;;;;;;;26.00;54.30;;;;;;5030415;28;19921;-69
2020/12/08 12:12:35;;;;;;;;;;;26.10;53.80;;;;;;5034876;28;20004;-69
2020/12/08 12:15:01;;;;;;;;;;;26.10;53.40;;;;;;5037648;28;19913;-71
2020/12/08 12:17:27;;;;;;;;;;;26.10;53.50;;;;;;5036059;28;19937;-66
2020/12/08 12:19:53;;;;;;;;;;;26.10;53.70;;;;;;5036390;28;19958;-71
2020/12/08 12:22:19;;;;;;;;;;;26.10;53.60;;;;;;5032370;28;19967;-70
2020/12/08 12:24:46;;;;;;;;;;;26.10;53.40;;;;;;5032905;28;20099;-68
2020/12/08 12:27:13;;;;;;;;;;;26.10;53.40;;;;;;5036506;28;20066;-69
2020/12/08 12:29:39;;;;;;;;;;;26.10;53.20;;;;;;5037957;28;19916;-68
2020/12/08 12:32:05;;;;;;;;;;;26.20;53.30;;;;;;5033957;28;19929;-67
2020/12/08 12:34:31;;;;;;;;;;;26.20;53.10;;;;;;5035178;28;19913;-69
2020/12/08 12:36:57;;;;;;;;;;;26.20;53.00;;;;;;5037255;28;19920;-67
2020/12/08 12:39:23;;;;;;;;;;;26.20;53.10;;;;;;5035644;28;19913;-75
2020/12/08 12:41:50;;;;;;;;;;;26.30;52.90;;;;;;5040883;28;19913;-69
2020/12/08 12:44:16;;;;;;;;;;;26.30;52.80;;;;;;5033178;28;20283;-69
2020/12/08 12:46:42;;;;;;;;;;;26.30;52.50;;;;;;5043010;28;19913;-69
2020/12/08 12:49:08;;;;;;;;;;;26.30;52.00;;;;;;5040212;28;19929;-70
2020/12/08 12:51:34;;;;;;;;;;;26.30;52.30;;;;;;5037514;28;19935;-68
2020/12/08 12:54:01;;;;;;;;;;;26.30;52.30;;;;;;5035053;28;19936;-67
2020/12/08 12:56:27;;;;;;;;;;;26.30;52.20;;;;;;5037862;28;19913;-69
2020/12/08 12:58:54;;;;;;;;;;;26.30;52.20;;;;;;5037104;28;19914;-70
2020/12/08 13:01:20;;;;;;;;;;;26.40;52.30;;;;;;5034127;28;19920;-70
2020/12/08 13:03:46;;;;;;;;;;;26.40;51.90;;;;;;5030433;28;20280;-67
2020/12/08 13:06:13;;;;;;;;;;;26.40;52.00;;;;;;5034032;28;20420;-67
2020/12/08 13:08:39;;;;;;;;;;;26.40;51.90;;;;;;5036787;28;19921;-67
2020/12/08 13:11:06;;;;;;;;;;;26.50;52.00;;;;;;5035853;28;19921;-67
2020/12/08 13:13:32;;;;;;;;;;;26.40;51.80;;;;;;5037634;28;19920;-67
2020/12/08 13:15:58;;;;;;;;;;;26.40;51.80;;;;;;5034728;28;19920;-68
2020/12/08 13:18:24;;;;;;;;;;;26.50;51.80;;;;;;5034511;28;20415;-67
2020/12/08 13:20:51;;;;;;;;;;;26.40;51.70;;;;;;5037477;28;19969;-67
2020/12/08 13:23:17;;;;;;;;;;;26.40;51.80;;;;;;5035915;28;19917;-66
2020/12/08 13:25:43;;;;;;;;;;;26.40;51.90;;;;;;5038098;28;20051;-71
2020/12/08 13:28:09;;;;;;;;;;;26.40;51.90;;;;;;5042971;28;20756;-71
2020/12/08 13:30:35;;;;;;;;;;;26.30;52.00;;;;;;5041379;28;19921;-69
2020/12/08 13:33:01;;;;;;;;;;;26.30;52.00;;;;;;5035988;28;19913;-70
2020/12/08 13:35:27;;;;;;;;;;;26.30;52.30;;;;;;5034906;28;20039;-66
2020/12/08 13:37:53;;;;;;;;;;;26.20;52.20;;;;;;5035762;28;20296;-68
2020/12/08 13:40:22;;;;;;;;;;;26.10;52.40;;;;;;5030527;28;19909;-75
2020/12/08 13:42:48;;;;;;;;;;;26.10;52.60;;;;;;5038927;28;19995;-66
2020/12/08 13:45:14;;;;;;;;;;;26.00;52.60;;;;;;5033026;28;19914;-66
2020/12/08 13:47:40;;;;;;;;;;;26.00;52.80;;;;;;5032056;28;19914;-66
2020/12/08 13:50:07;;;;;;;;;;;25.90;52.80;;;;;;5036531;28;20070;-67
2020/12/08 13:52:33;;;;;;;;;;;25.90;53.00;;;;;;5033890;28;20431;-66
2020/12/08 13:54:59;;;;;;;;;;;25.90;53.00;;;;;;5035954;28;19920;-67
2020/12/08 13:57:25;;;;;;;;;;;25.90;53.10;;;;;;5035919;28;19992;-66
2020/12/08 13:59:51;;;;;;;;;;;25.90;53.20;;;;;;5038367;28;19935;-72
2020/12/08 14:02:18;;;;;;;;;;;25.90;53.20;;;;;;5037306;28;19912;-66
2020/12/08 14:04:44;;;;;;;;;;;25.90;53.20;;;;;;5041576;28;19952;-68
2020/12/08 14:07:11;;;;;;;;;;;26.00;53.30;;;;;;5037542;28;20457;-66
2020/12/08 14:09:37;;;;;;;;;;;26.00;53.20;;;;;;5037442;28;19921;-75
2020/12/08 14:12:06;;;;;;;;;;;26.00;53.20;;;;;;5040536;28;20303;-70
2020/12/08 14:14:32;;;;;;;;;;;26.00;53.20;;;;;;5034196;28;19916;-70
2020/12/08 14:16:58;;;;;;;;;;;26.00;53.20;;;;;;5067911;28;19940;-66
2020/12/08 14:19:25;;;;;;;;;;;26.00;53.20;;;;;;5033081;28;19914;-68
2020/12/08 14:21:54;;;;;;;;;;;26.00;53.00;;;;;;5033747;28;19909;-73
2020/12/08 14:24:41;;;;;;;;;;;26.00;53.20;;;;;;5036772;28;19952;-72
2020/12/08 14:27:27;;;;;;;;;;;25.90;53.00;;;;;;5038989;28;19917;-68
2020/12/08 14:30:13;;;;;;;;;;;25.90;53.00;;;;;;5037173;28;20077;-66
2020/12/08 14:32:59;;;;;;;;;;;26.00;53.10;;;;;;5031689;28;20016;-66
2020/12/08 14:35:44;;;;;;;;;;;25.90;53.00;;;;;;5029960;28;19913;-67
2020/12/08 14:38:30;;;;;;;;;;;26.00;53.10;;;;;;5031908;28;19956;-66
2020/12/08 14:41:16;;;;;;;;;;;25.90;53.20;;;;;;5034002;28;19913;-71
2020/12/08 14:44:02;;;;;;;;;;;26.00;53.30;;;;;;5032430;28;19925;-70
2020/12/08 14:46:49;;;;;;;;;;;26.00;53.50;;;;;;5036386;28;20582;-68